West Dade, Florida
Current Conditions -  °F | °C
As of 5:53 PM on Friday 28 Nov 2014 (Local Time) from KTMB Reporting Station
Clear Clear  
Wind Chill: 18°   Ceiling: Unl
Heat Index: 18°   Visibility: 10mi
Dew Point: 11°   Wind: 12mph
Humidity: 63%   Direction: 350°N
Pressure: 30.18"   Gusts: NA
Location:  25.5736°N, 80.7073°W
Report Text: KTMB 282253Z 35010KT 10SM CLR 18/11 A3018 RMK AO2 SLP218 T01780106
Loading
Personal Weather Stations






























Interactive Weather Map New forecast layout! Learn more

10-Day Weather Forecast

Advertisements
Track Severe Weather on mobile